Packwood, WA (98361)

4:36 PM PDT on August 03, 2015 (GMT -0700)
Paradise Estates | | Change Station
CLOSE
Current Station
Personal Weather Station
Location: Ashford, WA
Elevation: 1722 ft
Nearby Weather Stations

Elev 1722 ft 46.73 °N, 122.01 °W | Updated 23 seconds ago

Mostly Cloudy
Mostly Cloudy
78.6 °F
Feels Like 79 °F
N
2.0
Wind Variable Wind from WSW

Today
High -- | Low -- °F
--% Chance of Precip.
Yesterday
High -- | Low -- °F
Precip. -- in
5:49 AM 8:35 PM
Waning Gibbous, 83% visible
Pressure 29.91 in
Visibility 10.0 miles
Clouds Clear
Heat Index 79 °F
Dew Point 53 °F
Humidity 41%
Rainfall 0.00 in
Snow Depth Not available.
UV 6 out of 12
Pollen 6.00 out of 12
Air Quality Not available.
Flu Activity Not available.
METAR KPLU 032315Z AUTO 28004G10KT 10SM CLR 28/12 A2991 RMK AO2

More Conditions Fewer Conditions

Pressure 29.91 in
Visibility 10.0 miles
Clouds Clear
Heat Index 79 °F
Dew Point 53 °F
Humidity 41%
Rainfall 0.00 in
Snow Depth Not available.
UV 6 out of 12
Pollen 6.00 out of 12
Air Quality Not available.
Flu Activity Not available.
METAR KPLU 032315Z AUTO 28004G10KT 10SM CLR 28/12 A2991 RMK AO2

More Conditions Fewer Conditions

10-Day Weather Forecast

×

Almanac

Astronomy

Aug. 03, 2015 Rise Set
Actual Time
Civil Twilight
Nautical Twilight
Astronomical Twilight
Moon
Length of Visible Light
Length of Day
Tomorrow will be .
, % of the Moon is Illuminated

Today's Extremes

State Highs State Lows

Community

WunderPhotos

Upload Photos

1,843,790 photos uploaded!

WunderBlogs® & News

Nearby

Air Quality

  Air Quality AQ Index Pollutant
Not available.

Snow Depth

Station Depth Elevation

Earthquake Activity

City Distance Mag. Time & Date
Minimum magnitude displayed is 2.5.

Coastal Water Temperatures

Place Temperature

Stations

Nearby Weather Stations

Station Location Temp. Windchill Dew Point Humidity Wind Precip. Elev Updated Type